sensor_id;sensor_type;location;lat;lon;timestamp;P1;durP1;ratioP1;P2;durP2;ratioP2
16416;SDS011;8317;52.186;5.688;2023-02-28T00:01:20;7.40;;;4.30;;
16416;SDS011;8317;52.186;5.688;2023-02-28T00:03:47;9.47;;;4.50;;
16416;SDS011;8317;52.186;5.688;2023-02-28T00:06:14;8.73;;;4.40;;
16416;SDS011;8317;52.186;5.688;2023-02-28T00:08:42;6.60;;;4.20;;
16416;SDS011;8317;52.186;5.688;2023-02-28T00:11:10;6.07;;;4.13;;
16416;SDS011;8317;52.186;5.688;2023-02-28T00:13:38;6.00;;;3.93;;
16416;SDS011;8317;52.186;5.688;2023-02-28T00:16:08;7.40;;;4.20;;
16416;SDS011;8317;52.186;5.688;2023-02-28T00:18:36;5.83;;;3.73;;
16416;SDS011;8317;52.186;5.688;2023-02-28T00:21:04;7.70;;;4.13;;
16416;SDS011;8317;52.186;5.688;2023-02-28T00:23:31;5.37;;;3.70;;
16416;SDS011;8317;52.186;5.688;2023-02-28T00:25:59;6.40;;;4.00;;
16416;SDS011;8317;52.186;5.688;2023-02-28T00:28:27;8.80;;;4.50;;
16416;SDS011;8317;52.186;5.688;2023-02-28T00:30:53;7.47;;;4.03;;
16416;SDS011;8317;52.186;5.688;2023-02-28T00:33:22;7.00;;;3.67;;
16416;SDS011;8317;52.186;5.688;2023-02-28T00:35:49;5.77;;;3.53;;
16416;SDS011;8317;52.186;5.688;2023-02-28T00:38:16;9.67;;;3.97;;
16416;SDS011;8317;52.186;5.688;2023-02-28T00:40:43;6.47;;;3.30;;
16416;SDS011;8317;52.186;5.688;2023-02-28T00:43:11;6.67;;;3.70;;
16416;SDS011;8317;52.186;5.688;2023-02-28T00:45:38;8.30;;;3.90;;
16416;SDS011;8317;52.186;5.688;2023-02-28T00:48:05;5.57;;;3.83;;
16416;SDS011;8317;52.186;5.688;2023-02-28T00:50:32;4.53;;;3.20;;
16416;SDS011;8317;52.186;5.688;2023-02-28T00:52:59;5.50;;;3.73;;
16416;SDS011;8317;52.186;5.688;2023-02-28T00:55:26;7.90;;;4.70;;
16416;SDS011;8317;52.186;5.688;2023-02-28T00:57:53;7.00;;;4.83;;
16416;SDS011;8317;52.186;5.688;2023-02-28T01:00:21;11.20;;;4.83;;
16416;SDS011;8317;52.186;5.688;2023-02-28T01:02:48;6.33;;;4.23;;
16416;SDS011;8317;52.186;5.688;2023-02-28T01:05:15;5.23;;;3.80;;
16416;SDS011;8317;52.186;5.688;2023-02-28T01:07:42;9.30;;;4.10;;
16416;SDS011;8317;52.186;5.688;2023-02-28T01:10:09;8.37;;;4.33;;
16416;SDS011;8317;52.186;5.688;2023-02-28T01:12:37;4.43;;;3.23;;
16416;SDS011;8317;52.186;5.688;2023-02-28T01:15:04;8.83;;;3.77;;
16416;SDS011;8317;52.186;5.688;2023-02-28T01:17:33;8.77;;;4.03;;
16416;SDS011;8317;52.186;5.688;2023-02-28T01:20:00;7.03;;;3.83;;
16416;SDS011;8317;52.186;5.688;2023-02-28T01:22:27;5.43;;;3.17;;
16416;SDS011;8317;52.186;5.688;2023-02-28T01:24:54;12.47;;;3.70;;
16416;SDS011;8317;52.186;5.688;2023-02-28T01:27:21;6.17;;;3.80;;
16416;SDS011;8317;52.186;5.688;2023-02-28T01:29:48;6.87;;;3.13;;
16416;SDS011;8317;52.186;5.688;2023-02-28T01:32:16;4.63;;;3.00;;
16416;SDS011;8317;52.186;5.688;2023-02-28T01:34:44;5.57;;;3.20;;
16416;SDS011;8317;52.186;5.688;2023-02-28T01:37:11;4.43;;;3.47;;
16416;SDS011;8317;52.186;5.688;2023-02-28T01:39:38;4.80;;;3.27;;
16416;SDS011;8317;52.186;5.688;2023-02-28T01:42:05;5.10;;;3.27;;
16416;SDS011;8317;52.186;5.688;2023-02-28T01:47:23;5.73;;;3.77;;
16416;SDS011;8317;52.186;5.688;2023-02-28T01:49:54;3.90;;;3.57;;
16416;SDS011;8317;52.186;5.688;2023-02-28T01:52:22;4.13;;;3.73;;
16416;SDS011;8317;52.186;5.688;2023-02-28T01:54:51;3.50;;;3.20;;
16416;SDS011;8317;52.186;5.688;2023-02-28T01:57:20;4.63;;;3.50;;
16416;SDS011;8317;52.186;5.688;2023-02-28T01:59:52;6.83;;;3.40;;
16416;SDS011;8317;52.186;5.688;2023-02-28T02:02:23;7.47;;;3.87;;
16416;SDS011;8317;52.186;5.688;2023-02-28T02:04:51;8.97;;;3.80;;
16416;SDS011;8317;52.186;5.688;2023-02-28T02:07:23;4.70;;;3.20;;
16416;SDS011;8317;52.186;5.688;2023-02-28T02:09:58;8.53;;;3.70;;
16416;SDS011;8317;52.186;5.688;2023-02-28T02:12:41;6.20;;;3.40;;
16416;SDS011;8317;52.186;5.688;2023-02-28T02:15:22;9.77;;;3.47;;
16416;SDS011;8317;52.186;5.688;2023-02-28T02:17:56;5.30;;;3.83;;
16416;SDS011;8317;52.186;5.688;2023-02-28T02:20:36;4.83;;;3.67;;
16416;SDS011;8317;52.186;5.688;2023-02-28T02:23:51;6.47;;;3.50;;
16416;SDS011;8317;52.186;5.688;2023-02-28T02:26:43;6.03;;;4.87;;
16416;SDS011;8317;52.186;5.688;2023-02-28T02:29:24;6.10;;;3.67;;
16416;SDS011;8317;52.186;5.688;2023-02-28T02:35:22;6.33;;;3.57;;
16416;SDS011;8317;52.186;5.688;2023-02-28T02:37:54;5.13;;;3.10;;
16416;SDS011;8317;52.186;5.688;2023-02-28T02:40:25;7.50;;;3.47;;
16416;SDS011;8317;52.186;5.688;2023-02-28T02:42:56;4.07;;;3.67;;
16416;SDS011;8317;52.186;5.688;2023-02-28T02:45:28;6.07;;;3.83;;
16416;SDS011;8317;52.186;5.688;2023-02-28T02:48:01;4.47;;;4.03;;
16416;SDS011;8317;52.186;5.688;2023-02-28T02:50:33;5.63;;;3.93;;
16416;SDS011;8317;52.186;5.688;2023-02-28T02:53:03;6.70;;;3.87;;
16416;SDS011;8317;52.186;5.688;2023-02-28T02:55:34;8.47;;;4.13;;
16416;SDS011;8317;52.186;5.688;2023-02-28T02:58:05;4.47;;;3.60;;
16416;SDS011;8317;52.186;5.688;2023-02-28T03:00:35;6.17;;;3.90;;
16416;SDS011;8317;52.186;5.688;2023-02-28T03:03:05;7.33;;;4.00;;
16416;SDS011;8317;52.186;5.688;2023-02-28T03:05:36;5.13;;;3.67;;
16416;SDS011;8317;52.186;5.688;2023-02-28T03:08:08;9.00;;;3.67;;
16416;SDS011;8317;52.186;5.688;2023-02-28T03:10:37;6.07;;;4.07;;
16416;SDS011;8317;52.186;5.688;2023-02-28T03:13:12;7.33;;;3.73;;
16416;SDS011;8317;52.186;5.688;2023-02-28T03:16:03;6.77;;;4.17;;
16416;SDS011;8317;52.186;5.688;2023-02-28T03:19:01;9.20;;;4.17;;
16416;SDS011;8317;52.186;5.688;2023-02-28T03:21:40;5.23;;;3.77;;
16416;SDS011;8317;52.186;5.688;2023-02-28T03:24:14;7.70;;;3.97;;
16416;SDS011;8317;52.186;5.688;2023-02-28T03:26:46;5.57;;;3.80;;
16416;SDS011;8317;52.186;5.688;2023-02-28T03:29:21;7.57;;;4.30;;
16416;SDS011;8317;52.186;5.688;2023-02-28T03:31:53;4.97;;;3.73;;
16416;SDS011;8317;52.186;5.688;2023-02-28T03:34:25;7.47;;;4.63;;
16416;SDS011;8317;52.186;5.688;2023-02-28T03:36:57;9.03;;;4.40;;
16416;SDS011;8317;52.186;5.688;2023-02-28T03:39:28;7.43;;;4.60;;
16416;SDS011;8317;52.186;5.688;2023-02-28T03:42:00;6.87;;;4.47;;
16416;SDS011;8317;52.186;5.688;2023-02-28T03:44:32;5.83;;;3.70;;
16416;SDS011;8317;52.186;5.688;2023-02-28T03:47:03;6.23;;;4.60;;
16416;SDS011;8317;52.186;5.688;2023-02-28T03:49:35;6.77;;;4.60;;
16416;SDS011;8317;52.186;5.688;2023-02-28T03:52:09;6.77;;;4.80;;
16416;SDS011;8317;52.186;5.688;2023-02-28T03:54:38;7.97;;;4.50;;
16416;SDS011;8317;52.186;5.688;2023-02-28T03:57:11;8.10;;;3.53;;
16416;SDS011;8317;52.186;5.688;2023-02-28T03:59:45;5.63;;;4.57;;
16416;SDS011;8317;52.186;5.688;2023-02-28T04:02:15;7.03;;;4.73;;
16416;SDS011;8317;52.186;5.688;2023-02-28T04:04:43;5.03;;;4.13;;
16416;SDS011;8317;52.186;5.688;2023-02-28T04:07:15;8.80;;;4.57;;
16416;SDS011;8317;52.186;5.688;2023-02-28T04:09:42;7.77;;;4.90;;
16416;SDS011;8317;52.186;5.688;2023-02-28T04:12:09;10.17;;;4.90;;
16416;SDS011;8317;52.186;5.688;2023-02-28T04:14:36;6.87;;;4.73;;
16416;SDS011;8317;52.186;5.688;2023-02-28T04:17:03;8.97;;;4.90;;
16416;SDS011;8317;52.186;5.688;2023-02-28T04:19:30;6.63;;;4.23;;
16416;SDS011;8317;52.186;5.688;2023-02-28T04:21:57;9.63;;;4.87;;
16416;SDS011;8317;52.186;5.688;2023-02-28T04:24:26;7.83;;;4.60;;
16416;SDS011;8317;52.186;5.688;2023-02-28T04:26:54;6.87;;;4.43;;
16416;SDS011;8317;52.186;5.688;2023-02-28T04:29:23;4.57;;;3.77;;
16416;SDS011;8317;52.186;5.688;2023-02-28T04:31:51;7.37;;;4.40;;
16416;SDS011;8317;52.186;5.688;2023-02-28T04:34:19;5.23;;;3.90;;
16416;SDS011;8317;52.186;5.688;2023-02-28T04:36:46;7.40;;;4.10;;
16416;SDS011;8317;52.186;5.688;2023-02-28T04:39:15;4.97;;;4.03;;
16416;SDS011;8317;52.186;5.688;2023-02-28T04:41:44;4.07;;;3.67;;
16416;SDS011;8317;52.186;5.688;2023-02-28T04:44:12;3.57;;;3.07;;
16416;SDS011;8317;52.186;5.688;2023-02-28T04:46:39;6.00;;;4.20;;
16416;SDS011;8317;52.186;5.688;2023-02-28T04:49:06;5.57;;;3.97;;
16416;SDS011;8317;52.186;5.688;2023-02-28T04:51:34;5.43;;;3.40;;
16416;SDS011;8317;52.186;5.688;2023-02-28T04:54:01;4.83;;;3.43;;
16416;SDS011;8317;52.186;5.688;2023-02-28T04:56:28;5.10;;;3.40;;
16416;SDS011;8317;52.186;5.688;2023-02-28T04:58:56;3.90;;;3.60;;
16416;SDS011;8317;52.186;5.688;2023-02-28T05:01:24;5.17;;;3.20;;
16416;SDS011;8317;52.186;5.688;2023-02-28T05:03:53;4.63;;;3.67;;
16416;SDS011;8317;52.186;5.688;2023-02-28T05:06:21;5.07;;;3.33;;
16416;SDS011;8317;52.186;5.688;2023-02-28T05:08:49;6.90;;;3.63;;
16416;SDS011;8317;52.186;5.688;2023-02-28T05:11:17;4.00;;;3.50;;
16416;SDS011;8317;52.186;5.688;2023-02-28T05:13:46;4.87;;;3.53;;
16416;SDS011;8317;52.186;5.688;2023-02-28T05:16:15;6.07;;;3.30;;
16416;SDS011;8317;52.186;5.688;2023-02-28T05:18:43;6.47;;;3.20;;
16416;SDS011;8317;52.186;5.688;2023-02-28T05:21:24;6.47;;;3.57;;
16416;SDS011;8317;52.186;5.688;2023-02-28T05:23:52;6.33;;;4.90;;
16416;SDS011;8317;52.186;5.688;2023-02-28T05:26:20;6.77;;;5.00;;
16416;SDS011;8317;52.186;5.688;2023-02-28T05:28:46;3.93;;;3.50;;
16416;SDS011;8317;52.186;5.688;2023-02-28T05:31:14;4.87;;;3.50;;
16416;SDS011;8317;52.186;5.688;2023-02-28T05:33:42;4.17;;;3.30;;
16416;SDS011;8317;52.186;5.688;2023-02-28T05:36:09;5.67;;;3.77;;
16416;SDS011;8317;52.186;5.688;2023-02-28T05:38:36;3.40;;;3.10;;
16416;SDS011;8317;52.186;5.688;2023-02-28T05:41:06;5.60;;;4.03;;
16416;SDS011;8317;52.186;5.688;2023-02-28T05:43:34;3.77;;;2.90;;
16416;SDS011;8317;52.186;5.688;2023-02-28T05:46:02;4.57;;;3.53;;
16416;SDS011;8317;52.186;5.688;2023-02-28T05:48:31;5.33;;;3.13;;
16416;SDS011;8317;52.186;5.688;2023-02-28T05:50:59;6.63;;;4.03;;
16416;SDS011;8317;52.186;5.688;2023-02-28T05:53:27;5.53;;;3.67;;
16416;SDS011;8317;52.186;5.688;2023-02-28T05:55:55;6.07;;;3.67;;
16416;SDS011;8317;52.186;5.688;2023-02-28T05:58:22;4.33;;;3.53;;
16416;SDS011;8317;52.186;5.688;2023-02-28T06:00:50;4.23;;;3.33;;
16416;SDS011;8317;52.186;5.688;2023-02-28T06:03:17;4.37;;;3.60;;
16416;SDS011;8317;52.186;5.688;2023-02-28T06:05:45;6.23;;;3.50;;
16416;SDS011;8317;52.186;5.688;2023-02-28T06:08:12;4.53;;;3.43;;
16416;SDS011;8317;52.186;5.688;2023-02-28T06:10:40;7.13;;;3.80;;
16416;SDS011;8317;52.186;5.688;2023-02-28T06:13:07;5.03;;;3.70;;
16416;SDS011;8317;52.186;5.688;2023-02-28T06:15:34;5.80;;;3.57;;
16416;SDS011;8317;52.186;5.688;2023-02-28T06:18:01;3.80;;;3.40;;
16416;SDS011;8317;52.186;5.688;2023-02-28T06:20:28;7.47;;;3.57;;
16416;SDS011;8317;52.186;5.688;2023-02-28T06:22:56;4.77;;;3.03;;
16416;SDS011;8317;52.186;5.688;2023-02-28T06:25:24;7.53;;;3.77;;
16416;SDS011;8317;52.186;5.688;2023-02-28T06:27:51;4.33;;;3.70;;
16416;SDS011;8317;52.186;5.688;2023-02-28T06:30:18;4.03;;;3.50;;
16416;SDS011;8317;52.186;5.688;2023-02-28T06:32:48;4.77;;;3.33;;
16416;SDS011;8317;52.186;5.688;2023-02-28T06:35:15;4.73;;;3.67;;
16416;SDS011;8317;52.186;5.688;2023-02-28T06:37:42;5.40;;;3.50;;
16416;SDS011;8317;52.186;5.688;2023-02-28T06:40:11;6.03;;;3.60;;
16416;SDS011;8317;52.186;5.688;2023-02-28T06:42:39;3.50;;;3.20;;
16416;SDS011;8317;52.186;5.688;2023-02-28T06:45:06;6.37;;;3.47;;
16416;SDS011;8317;52.186;5.688;2023-02-28T06:47:35;4.10;;;3.33;;
16416;SDS011;8317;52.186;5.688;2023-02-28T06:50:02;5.33;;;3.90;;
16416;SDS011;8317;52.186;5.688;2023-02-28T06:52:30;4.23;;;3.83;;
16416;SDS011;8317;52.186;5.688;2023-02-28T06:54:57;4.87;;;3.43;;
16416;SDS011;8317;52.186;5.688;2023-02-28T06:57:28;5.87;;;3.67;;
16416;SDS011;8317;52.186;5.688;2023-02-28T06:59:57;7.70;;;4.70;;
16416;SDS011;8317;52.186;5.688;2023-02-28T07:02:24;6.03;;;4.27;;
16416;SDS011;8317;52.186;5.688;2023-02-28T07:04:51;6.03;;;4.13;;
16416;SDS011;8317;52.186;5.688;2023-02-28T07:07:18;7.70;;;5.03;;
16416;SDS011;8317;52.186;5.688;2023-02-28T07:09:45;6.43;;;4.40;;
16416;SDS011;8317;52.186;5.688;2023-02-28T07:12:12;8.73;;;4.70;;
16416;SDS011;8317;52.186;5.688;2023-02-28T07:14:41;4.40;;;4.00;;
16416;SDS011;8317;52.186;5.688;2023-02-28T07:17:08;4.57;;;4.07;;
16416;SDS011;8317;52.186;5.688;2023-02-28T07:19:37;6.50;;;4.20;;
16416;SDS011;8317;52.186;5.688;2023-02-28T07:22:03;6.50;;;4.50;;
16416;SDS011;8317;52.186;5.688;2023-02-28T07:24:31;4.17;;;3.77;;
16416;SDS011;8317;52.186;5.688;2023-02-28T07:26:58;5.73;;;4.93;;
16416;SDS011;8317;52.186;5.688;2023-02-28T07:29:25;5.80;;;4.33;;
16416;SDS011;8317;52.186;5.688;2023-02-28T07:31:54;6.00;;;4.20;;
16416;SDS011;8317;52.186;5.688;2023-02-28T07:34:21;5.33;;;3.97;;
16416;SDS011;8317;52.186;5.688;2023-02-28T07:36:49;5.07;;;4.10;;
16416;SDS011;8317;52.186;5.688;2023-02-28T07:39:18;6.77;;;4.57;;
16416;SDS011;8317;52.186;5.688;2023-02-28T07:41:45;5.50;;;4.13;;
16416;SDS011;8317;52.186;5.688;2023-02-28T07:44:12;7.90;;;4.80;;
16416;SDS011;8317;52.186;5.688;2023-02-28T07:46:39;10.00;;;5.07;;
16416;SDS011;8317;52.186;5.688;2023-02-28T07:49:08;5.23;;;4.20;;
16416;SDS011;8317;52.186;5.688;2023-02-28T07:51:34;7.07;;;4.30;;
16416;SDS011;8317;52.186;5.688;2023-02-28T07:54:01;7.90;;;5.00;;
16416;SDS011;8317;52.186;5.688;2023-02-28T07:56:29;7.13;;;5.07;;
16416;SDS011;8317;52.186;5.688;2023-02-28T07:58:55;6.27;;;4.17;;
16416;SDS011;8317;52.186;5.688;2023-02-28T08:01:22;4.63;;;4.17;;
16416;SDS011;8317;52.186;5.688;2023-02-28T08:03:49;5.77;;;4.60;;
16416;SDS011;8317;52.186;5.688;2023-02-28T08:06:19;4.00;;;3.47;;
16416;SDS011;8317;52.186;5.688;2023-02-28T08:08:48;4.57;;;3.57;;
16416;SDS011;8317;52.186;5.688;2023-02-28T08:11:15;6.07;;;4.30;;
16416;SDS011;8317;52.186;5.688;2023-02-28T08:13:43;11.03;;;7.63;;
16416;SDS011;8317;52.186;5.688;2023-02-28T08:16:10;9.53;;;5.57;;
16416;SDS011;8317;52.186;5.688;2023-02-28T08:18:39;4.87;;;3.97;;
16416;SDS011;8317;52.186;5.688;2023-02-28T08:21:06;6.57;;;4.03;;
16416;SDS011;8317;52.186;5.688;2023-02-28T08:23:35;5.73;;;5.10;;
16416;SDS011;8317;52.186;5.688;2023-02-28T08:26:02;3.93;;;3.60;;
16416;SDS011;8317;52.186;5.688;2023-02-28T08:28:30;6.90;;;4.10;;
16416;SDS011;8317;52.186;5.688;2023-02-28T08:30:57;6.27;;;4.20;;
16416;SDS011;8317;52.186;5.688;2023-02-28T08:33:24;5.73;;;3.40;;
16416;SDS011;8317;52.186;5.688;2023-02-28T08:35:53;4.83;;;3.33;;
16416;SDS011;8317;52.186;5.688;2023-02-28T08:38:20;4.93;;;3.67;;
16416;SDS011;8317;52.186;5.688;2023-02-28T08:40:49;5.77;;;4.10;;
16416;SDS011;8317;52.186;5.688;2023-02-28T08:43:16;6.77;;;2.80;;
16416;SDS011;8317;52.186;5.688;2023-02-28T08:45:43;3.30;;;2.37;;
16416;SDS011;8317;52.186;5.688;2023-02-28T08:48:10;2.43;;;2.20;;
16416;SDS011;8317;52.186;5.688;2023-02-28T08:50:37;4.53;;;2.80;;
16416;SDS011;8317;52.186;5.688;2023-02-28T08:53:03;2.83;;;2.30;;
16416;SDS011;8317;52.186;5.688;2023-02-28T08:55:30;3.03;;;2.40;;
16416;SDS011;8317;52.186;5.688;2023-02-28T08:57:59;2.33;;;1.60;;
16416;SDS011;8317;52.186;5.688;2023-02-28T09:00:26;2.43;;;2.07;;
16416;SDS011;8317;52.186;5.688;2023-02-28T09:02:53;2.37;;;1.80;;
16416;SDS011;8317;52.186;5.688;2023-02-28T09:05:20;2.00;;;1.80;;
16416;SDS011;8317;52.186;5.688;2023-02-28T09:07:46;2.20;;;1.80;;
16416;SDS011;8317;52.186;5.688;2023-02-28T09:10:14;2.07;;;1.47;;
16416;SDS011;8317;52.186;5.688;2023-02-28T09:12:40;5.63;;;1.67;;
16416;SDS011;8317;52.186;5.688;2023-02-28T09:15:11;1.73;;;1.63;;
16416;SDS011;8317;52.186;5.688;2023-02-28T09:17:38;1.77;;;1.67;;
16416;SDS011;8317;52.186;5.688;2023-02-28T09:20:05;1.77;;;1.67;;
16416;SDS011;8317;52.186;5.688;2023-02-28T09:22:33;2.38;;;1.70;;
16416;SDS011;8317;52.186;5.688;2023-02-28T09:25:00;1.90;;;1.70;;
16416;SDS011;8317;52.186;5.688;2023-02-28T09:27:27;5.13;;;1.70;;
16416;SDS011;8317;52.186;5.688;2023-02-28T09:29:54;2.85;;;1.77;;
16416;SDS011;8317;52.186;5.688;2023-02-28T09:32:22;2.95;;;1.85;;
16416;SDS011;8317;52.186;5.688;2023-02-28T09:34:53;2.13;;;1.80;;
16416;SDS011;8317;52.186;5.688;2023-02-28T09:37:25;4.70;;;1.73;;
16416;SDS011;8317;52.186;5.688;2023-02-28T09:39:54;2.22;;;2.00;;
16416;SDS011;8317;52.186;5.688;2023-02-28T09:42:21;2.30;;;2.00;;
16416;SDS011;8317;52.186;5.688;2023-02-28T09:44:53;1.98;;;1.77;;
16416;SDS011;8317;52.186;5.688;2023-02-28T09:47:25;1.95;;;1.83;;
16416;SDS011;8317;52.186;5.688;2023-02-28T09:49:55;1.98;;;1.75;;
16416;SDS011;8317;52.186;5.688;2023-02-28T09:52:27;2.88;;;2.10;;
16416;SDS011;8317;52.186;5.688;2023-02-28T09:54:58;2.65;;;2.00;;
16416;SDS011;8317;52.186;5.688;2023-02-28T09:57:45;3.42;;;1.85;;
16416;SDS011;8317;52.186;5.688;2023-02-28T10:00:13;1.85;;;1.75;;
16416;SDS011;8317;52.186;5.688;2023-02-28T10:02:54;2.83;;;2.05;;
16416;SDS011;8317;52.186;5.688;2023-02-28T10:05:33;4.82;;;2.10;;
16416;SDS011;8317;52.186;5.688;2023-02-28T10:08:05;2.17;;;1.95;;
16416;SDS011;8317;52.186;5.688;2023-02-28T10:10:39;2.53;;;1.73;;
16416;SDS011;8317;52.186;5.688;2023-02-28T10:13:12;2.78;;;2.38;;
16416;SDS011;8317;52.186;5.688;2023-02-28T10:15:49;3.60;;;1.83;;
16416;SDS011;8317;52.186;5.688;2023-02-28T10:18:23;2.28;;;1.80;;
16416;SDS011;8317;52.186;5.688;2023-02-28T10:20:51;2.03;;;1.75;;
16416;SDS011;8317;52.186;5.688;2023-02-28T10:23:21;2.03;;;1.80;;
16416;SDS011;8317;52.186;5.688;2023-02-28T10:25:53;1.80;;;1.65;;
16416;SDS011;8317;52.186;5.688;2023-02-28T10:28:24;2.30;;;1.70;;
16416;SDS011;8317;52.186;5.688;2023-02-28T10:30:53;1.85;;;1.70;;
16416;SDS011;8317;52.186;5.688;2023-02-28T10:33:27;1.65;;;1.48;;
16416;SDS011;8317;52.186;5.688;2023-02-28T10:35:56;2.50;;;1.60;;
16416;SDS011;8317;52.186;5.688;2023-02-28T10:38:25;4.22;;;2.00;;
16416;SDS011;8317;52.186;5.688;2023-02-28T10:41:00;3.38;;;2.10;;
16416;SDS011;8317;52.186;5.688;2023-02-28T10:43:30;2.00;;;1.80;;
16416;SDS011;8317;52.186;5.688;2023-02-28T10:45:58;2.08;;;1.70;;
16416;SDS011;8317;52.186;5.688;2023-02-28T10:48:37;2.50;;;1.90;;
16416;SDS011;8317;52.186;5.688;2023-02-28T10:51:05;3.03;;;1.73;;
16416;SDS011;8317;52.186;5.688;2023-02-28T10:53:35;3.13;;;1.92;;
16416;SDS011;8317;52.186;5.688;2023-02-28T10:56:14;2.92;;;1.90;;
16416;SDS011;8317;52.186;5.688;2023-02-28T10:58:47;3.78;;;2.03;;
16416;SDS011;8317;52.186;5.688;2023-02-28T11:01:18;3.63;;;1.73;;
16416;SDS011;8317;52.186;5.688;2023-02-28T11:03:48;2.55;;;2.03;;
16416;SDS011;8317;52.186;5.688;2023-02-28T11:06:16;2.00;;;1.60;;
16416;SDS011;8317;52.186;5.688;2023-02-28T11:08:46;1.98;;;1.80;;
16416;SDS011;8317;52.186;5.688;2023-02-28T11:11:14;3.55;;;1.85;;
16416;SDS011;8317;52.186;5.688;2023-02-28T11:13:43;2.25;;;1.70;;
16416;SDS011;8317;52.186;5.688;2023-02-28T11:16:13;2.55;;;1.67;;
16416;SDS011;8317;52.186;5.688;2023-02-28T11:18:42;1.90;;;1.70;;
16416;SDS011;8317;52.186;5.688;2023-02-28T11:21:18;2.60;;;2.10;;
16416;SDS011;8317;52.186;5.688;2023-02-28T11:23:49;1.92;;;1.73;;
16416;SDS011;8317;52.186;5.688;2023-02-28T11:26:36;2.15;;;1.98;;
16416;SDS011;8317;52.186;5.688;2023-02-28T11:29:18;3.47;;;1.60;;
16416;SDS011;8317;52.186;5.688;2023-02-28T11:32:00;1.90;;;1.70;;
16416;SDS011;8317;52.186;5.688;2023-02-28T11:34:39;2.67;;;1.85;;
16416;SDS011;8317;52.186;5.688;2023-02-28T11:37:11;2.78;;;2.00;;
16416;SDS011;8317;52.186;5.688;2023-02-28T11:39:40;2.63;;;1.85;;
16416;SDS011;8317;52.186;5.688;2023-02-28T11:42:11;3.38;;;2.10;;
16416;SDS011;8317;52.186;5.688;2023-02-28T11:44:54;2.95;;;2.20;;
16416;SDS011;8317;52.186;5.688;2023-02-28T11:47:37;2.60;;;1.90;;
16416;SDS011;8317;52.186;5.688;2023-02-28T11:50:20;1.92;;;1.75;;
16416;SDS011;8317;52.186;5.688;2023-02-28T11:53:00;6.10;;;2.00;;
16416;SDS011;8317;52.186;5.688;2023-02-28T11:55:32;2.28;;;1.80;;
16416;SDS011;8317;52.186;5.688;2023-02-28T11:58:11;2.80;;;2.00;;
16416;SDS011;8317;52.186;5.688;2023-02-28T12:01:02;2.75;;;1.70;;
16416;SDS011;8317;52.186;5.688;2023-02-28T12:03:38;2.35;;;1.80;;
16416;SDS011;8317;52.186;5.688;2023-02-28T12:06:16;1.80;;;1.70;;
16416;SDS011;8317;52.186;5.688;2023-02-28T12:08:56;2.20;;;2.00;;
16416;SDS011;8317;52.186;5.688;2023-02-28T12:11:34;2.13;;;1.88;;
16416;SDS011;8317;52.186;5.688;2023-02-28T12:14:16;2.00;;;1.90;;
16416;SDS011;8317;52.186;5.688;2023-02-28T12:17:06;2.20;;;2.00;;
16416;SDS011;8317;52.186;5.688;2023-02-28T12:19:45;3.40;;;2.30;;
16416;SDS011;8317;52.186;5.688;2023-02-28T12:22:27;2.40;;;2.00;;
16416;SDS011;8317;52.186;5.688;2023-02-28T12:25:08;2.40;;;2.20;;
16416;SDS011;8317;52.186;5.688;2023-02-28T12:27:58;3.35;;;2.35;;
16416;SDS011;8317;52.186;5.688;2023-02-28T12:30:26;2.15;;;1.95;;
16416;SDS011;8317;52.186;5.688;2023-02-28T12:32:56;2.53;;;1.80;;
16416;SDS011;8317;52.186;5.688;2023-02-28T12:35:32;2.80;;;1.92;;
16416;SDS011;8317;52.186;5.688;2023-02-28T12:38:02;2.70;;;2.20;;
16416;SDS011;8317;52.186;5.688;2023-02-28T12:40:41;2.20;;;2.00;;
16416;SDS011;8317;52.186;5.688;2023-02-28T12:43:11;3.42;;;2.30;;
16416;SDS011;8317;52.186;5.688;2023-02-28T12:45:41;3.80;;;2.13;;
16416;SDS011;8317;52.186;5.688;2023-02-28T12:48:13;3.20;;;2.33;;
16416;SDS011;8317;52.186;5.688;2023-02-28T12:50:44;2.40;;;2.20;;
16416;SDS011;8317;52.186;5.688;2023-02-28T12:53:13;5.28;;;2.38;;
16416;SDS011;8317;52.186;5.688;2023-02-28T12:55:49;3.45;;;2.50;;
16416;SDS011;8317;52.186;5.688;2023-02-28T12:58:25;2.33;;;2.08;;
16416;SDS011;8317;52.186;5.688;2023-02-28T13:01:03;3.08;;;2.55;;
16416;SDS011;8317;52.186;5.688;2023-02-28T13:03:44;2.88;;;2.17;;
16416;SDS011;8317;52.186;5.688;2023-02-28T13:09:25;4.05;;;2.28;;
16416;SDS011;8317;52.186;5.688;2023-02-28T13:11:55;3.75;;;2.60;;
16416;SDS011;8317;52.186;5.688;2023-02-28T13:14:25;4.50;;;2.40;;
16416;SDS011;8317;52.186;5.688;2023-02-28T13:16:56;4.45;;;2.38;;
16416;SDS011;8317;52.186;5.688;2023-02-28T13:19:28;3.13;;;2.55;;
16416;SDS011;8317;52.186;5.688;2023-02-28T13:21:56;2.67;;;1.98;;
16416;SDS011;8317;52.186;5.688;2023-02-28T13:24:42;8.85;;;5.60;;
16416;SDS011;8317;52.186;5.688;2023-02-28T13:27:23;5.45;;;3.67;;
16416;SDS011;8317;52.186;5.688;2023-02-28T13:29:58;2.47;;;2.00;;
16416;SDS011;8317;52.186;5.688;2023-02-28T13:32:35;2.30;;;2.05;;
16416;SDS011;8317;52.186;5.688;2023-02-28T13:44:12;2.33;;;2.03;;
16416;SDS011;8317;52.186;5.688;2023-02-28T13:49:40;2.90;;;2.20;;
16416;SDS011;8317;52.186;5.688;2023-02-28T13:52:10;2.90;;;2.40;;
16416;SDS011;8317;52.186;5.688;2023-02-28T13:54:45;3.75;;;3.05;;
16416;SDS011;8317;52.186;5.688;2023-02-28T13:57:43;2.28;;;2.10;;
16416;SDS011;8317;52.186;5.688;2023-02-28T14:00:23;4.13;;;2.42;;
16416;SDS011;8317;52.186;5.688;2023-02-28T14:03:03;3.58;;;2.92;;
16416;SDS011;8317;52.186;5.688;2023-02-28T14:05:38;3.88;;;2.17;;
16416;SDS011;8317;52.186;5.688;2023-02-28T14:08:06;2.40;;;2.20;;
16416;SDS011;8317;52.186;5.688;2023-02-28T14:10:42;5.72;;;2.33;;
16416;SDS011;8317;52.186;5.688;2023-02-28T14:13:12;3.90;;;2.80;;
16416;SDS011;8317;52.186;5.688;2023-02-28T14:15:58;2.63;;;2.40;;
16416;SDS011;8317;52.186;5.688;2023-02-28T14:18:28;2.88;;;2.28;;
16416;SDS011;8317;52.186;5.688;2023-02-28T14:20:58;3.10;;;2.10;;
16416;SDS011;8317;52.186;5.688;2023-02-28T14:23:40;5.72;;;1.83;;
16416;SDS011;8317;52.186;5.688;2023-02-28T14:26:28;4.32;;;1.90;;
16416;SDS011;8317;52.186;5.688;2023-02-28T14:29:18;2.25;;;2.05;;
16416;SDS011;8317;52.186;5.688;2023-02-28T14:32:10;5.90;;;5.15;;
16416;SDS011;8317;52.186;5.688;2023-02-28T14:34:48;3.20;;;2.05;;
16416;SDS011;8317;52.186;5.688;2023-02-28T14:37:23;2.75;;;1.98;;
16416;SDS011;8317;52.186;5.688;2023-02-28T14:39:54;4.47;;;3.15;;
16416;SDS011;8317;52.186;5.688;2023-02-28T14:42:27;3.10;;;2.22;;
16416;SDS011;8317;52.186;5.688;2023-02-28T14:44:55;3.58;;;2.45;;
16416;SDS011;8317;52.186;5.688;2023-02-28T14:47:25;3.80;;;2.70;;
16416;SDS011;8317;52.186;5.688;2023-02-28T14:49:54;6.35;;;2.90;;
16416;SDS011;8317;52.186;5.688;2023-02-28T14:52:22;3.97;;;2.30;;
16416;SDS011;8317;52.186;5.688;2023-02-28T14:54:52;3.17;;;2.28;;
16416;SDS011;8317;52.186;5.688;2023-02-28T14:57:21;2.40;;;2.20;;
16416;SDS011;8317;52.186;5.688;2023-02-28T14:59:56;3.47;;;2.70;;
16416;SDS011;8317;52.186;5.688;2023-02-28T15:02:29;4.70;;;2.90;;
16416;SDS011;8317;52.186;5.688;2023-02-28T15:04:57;4.85;;;2.55;;
16416;SDS011;8317;52.186;5.688;2023-02-28T15:07:26;2.67;;;2.35;;
16416;SDS011;8317;52.186;5.688;2023-02-28T15:10:11;2.55;;;1.90;;
16416;SDS011;8317;52.186;5.688;2023-02-28T15:12:45;2.53;;;1.92;;
16416;SDS011;8317;52.186;5.688;2023-02-28T15:15:17;2.05;;;1.85;;
16416;SDS011;8317;52.186;5.688;2023-02-28T15:17:48;2.30;;;2.03;;
16416;SDS011;8317;52.186;5.688;2023-02-28T15:20:18;2.65;;;2.08;;
16416;SDS011;8317;52.186;5.688;2023-02-28T15:22:46;5.75;;;2.72;;
16416;SDS011;8317;52.186;5.688;2023-02-28T15:25:17;3.42;;;2.45;;
16416;SDS011;8317;52.186;5.688;2023-02-28T15:27:47;3.22;;;2.28;;
16416;SDS011;8317;52.186;5.688;2023-02-28T15:30:17;3.78;;;2.38;;
16416;SDS011;8317;52.186;5.688;2023-02-28T15:35:48;2.58;;;2.30;;
16416;SDS011;8317;52.186;5.688;2023-02-28T15:38:17;3.75;;;2.40;;
16416;SDS011;8317;52.186;5.688;2023-02-28T15:40:50;2.83;;;2.55;;
16416;SDS011;8317;52.186;5.688;2023-02-28T15:43:23;2.53;;;2.20;;
16416;SDS011;8317;52.186;5.688;2023-02-28T15:45:51;4.50;;;2.40;;
16416;SDS011;8317;52.186;5.688;2023-02-28T15:48:22;2.85;;;2.50;;